Lascaux — LXUU — position and weather

sailwx.info

Track history (hours):
 
Tides and Currents Weather Stations Pressure Air Temp Water Temp Dewpoint Dewpoint Depression Visibility Wind Speed Wind Dir Waves Ship Positions

Lascaux

Last reported at 2018-Jun-24 09:59 UTC. Time now 2018-Jun-24 14:34 UTC.
Position N 14°36' W 061°02'.

Length 120 m; draft 6.5 m.

Type: Tanker. MMSI: 253218000.

Date/timePositionNaut miles runAvg speedWind from/ knotsBaromVisibWave heightAir tempDewpointWater temp
2018-Jun-24 09:59N 14°36' W 061°02'1 2.4
2018-Jun-24 09:30N 14°35' W 061°02'4 0.4
2018-Jun-23 22:52N 14°34' W 061°06'3 5.7
2018-Jun-23 22:24N 14°36' W 061°08'  
2018-Jun-17 14:23N 14°41' W 061°17'4 9.5
2018-Jun-17 14:00N 14°38' W 061°15'5 9.7
2018-Jun-17 13:30N 14°35' W 061°10'510.4
2018-Jun-17 12:59N 14°35' W 061°05'3 4.2
2018-Jun-17 12:15N 14°36' W 061°02'0 0.0
2018-Jun-15 09:20N 14°36' W 061°02'1 3.2
2018-Jun-15 09:00N 14°35' W 061°02'3 6.6
2018-Jun-15 08:30N 14°35' W 061°06'4 7.6
2018-Jun-15 08:00N 14°35' W 061°09'4 7.8
2018-Jun-15 07:28N 14°35' W 061°14'  
Track history (hours):
 
Tides and Currents Weather Stations Pressure Air Temp Water Temp Dewpoint Dewpoint Depression Visibility Wind Speed Wind Dir Waves Ship Positions

Lascaux

Last reported at 2018-Jun-24 09:59 UTC. Time now 2018-Jun-24 14:34 UTC.
Position N 14°36' W 061°02'.

Length 120 m; draft 6.5 m.

Type: Tanker. MMSI: 253218000.

Date/timePositionNaut miles runAvg speedWind from/ knotsBaromVisibWave heightAir tempDewpointWater temp
2018-Jun-24 09:59N 14°36' W 061°02'1 2.4
2018-Jun-24 09:30N 14°35' W 061°02'4 0.4
2018-Jun-23 22:52N 14°34' W 061°06'3 5.7
2018-Jun-23 22:24N 14°36' W 061°08'  
2018-Jun-17 14:23N 14°41' W 061°17'4 9.5
2018-Jun-17 14:00N 14°38' W 061°15'5 9.7
2018-Jun-17 13:30N 14°35' W 061°10'510.4
2018-Jun-17 12:59N 14°35' W 061°05'3 4.2
2018-Jun-17 12:15N 14°36' W 061°02'0 0.0
2018-Jun-15 09:20N 14°36' W 061°02'1 3.2
2018-Jun-15 09:00N 14°35' W 061°02'3 6.6
2018-Jun-15 08:30N 14°35' W 061°06'4 7.6
2018-Jun-15 08:00N 14°35' W 061°09'4 7.8
2018-Jun-15 07:28N 14°35' W 061°14'  

Dump ship's entire track history